createdAt,value
2022-08-27T00:03:31.722Z,6.40
2022-08-27T00:08:37.528Z,6.20
2022-08-27T00:13:42.062Z,6.70
2022-08-27T00:18:48.199Z,6.60
2022-08-27T00:23:51.417Z,6.40
2022-08-27T00:28:54.368Z,6.80
2022-08-27T00:33:58.397Z,6.40
2022-08-27T00:39:01.360Z,7.90
2022-08-27T00:44:06.065Z,6.50
2022-08-27T00:49:26.891Z,6.20
2022-08-27T00:54:30.168Z,6.50
2022-08-27T00:59:33.099Z,6.80
2022-08-27T01:04:39.197Z,7.60
2022-08-27T01:09:44.501Z,6.90
2022-08-27T01:14:48.058Z,7.10
2022-08-27T01:19:58.936Z,7.50
2022-08-27T01:25:08.343Z,7.10
2022-08-27T01:30:15.856Z,7.10
2022-08-27T01:35:20.578Z,7.00
2022-08-27T01:40:23.526Z,7.40
2022-08-27T01:45:29.848Z,7.60
2022-08-27T01:55:39.661Z,7.50
2022-08-27T02:00:54.190Z,7.10
2022-08-27T02:06:01.084Z,7.90
2022-08-27T02:11:05.064Z,7.70
2022-08-27T02:16:09.270Z,7.80
2022-08-27T02:21:13.113Z,7.60
2022-08-27T02:26:16.086Z,7.30
2022-08-27T02:31:19.139Z,7.40
2022-08-27T02:36:22.073Z,7.70
2022-08-27T02:41:25.015Z,7.70
2022-08-27T02:46:27.919Z,7.30
2022-08-27T02:51:31.065Z,7.40
2022-08-27T02:56:34.157Z,8.10
2022-08-27T03:01:37.191Z,8.00
2022-08-27T03:06:41.733Z,7.80
2022-08-27T03:11:44.656Z,7.80
2022-08-27T03:16:48.009Z,8.10
2022-08-27T03:21:54.384Z,8.20
2022-08-27T03:27:00.109Z,8.00
2022-08-27T03:32:06.171Z,7.90
2022-08-27T03:37:09.042Z,8.20
2022-08-27T03:42:13.048Z,8.40
2022-08-27T03:47:16.329Z,8.40
2022-08-27T03:52:19.663Z,7.80
2022-08-27T03:57:22.835Z,7.50
2022-08-27T04:02:26.382Z,7.80
2022-08-27T04:07:29.443Z,8.60
2022-08-27T04:12:32.506Z,8.20
2022-08-27T04:17:36.124Z,8.50
2022-08-27T04:22:39.676Z,8.30
2022-08-27T04:27:43.773Z,7.70
2022-08-27T04:32:47.315Z,8.00
2022-08-27T04:37:51.436Z,7.80
2022-08-27T04:42:54.712Z,9.10
2022-08-27T04:47:57.603Z,8.90
2022-08-27T04:53:02.194Z,9.70
2022-08-27T04:58:07.478Z,8.80
2022-08-27T05:03:11.517Z,9.10
2022-08-27T05:08:14.687Z,9.40
2022-08-27T05:13:19.998Z,8.90
2022-08-27T05:18:22.975Z,7.40
2022-08-27T05:23:28.265Z,8.90
2022-08-27T05:28:31.223Z,8.50
2022-08-27T05:33:34.893Z,7.60
2022-08-27T05:38:37.851Z,8.80
2022-08-27T05:43:47.756Z,8.60
2022-08-27T05:48:58.331Z,8.00
2022-08-27T05:54:08.766Z,8.20
2022-08-27T05:59:31.149Z,8.00
2022-08-27T06:04:37.828Z,7.60
2022-08-27T06:09:40.773Z,7.70
2022-08-27T06:14:43.640Z,8.30
2022-08-27T06:19:46.490Z,7.10
2022-08-27T06:24:49.526Z,7.40
2022-08-27T06:29:52.431Z,6.80
2022-08-27T06:34:55.431Z,6.90
2022-08-27T06:39:58.621Z,6.10
2022-08-27T06:45:01.558Z,6.80
2022-08-27T06:50:04.940Z,7.40
2022-08-27T06:55:09.987Z,7.20
2022-08-27T07:00:13.372Z,7.00
2022-08-27T07:05:19.258Z,7.90
2022-08-27T07:10:22.406Z,7.60
2022-08-27T07:15:25.506Z,7.10
2022-08-27T07:20:31.069Z,7.70
2022-08-27T07:25:34.124Z,7.40
2022-08-27T07:30:37.964Z,7.50
2022-08-27T07:35:41.478Z,7.70
2022-08-27T07:40:44.453Z,7.10
2022-08-27T07:45:49.154Z,6.70
2022-08-27T07:50:54.120Z,7.00
2022-08-27T07:56:03.650Z,7.00
2022-08-27T08:01:07.405Z,6.50
2022-08-27T08:06:14.111Z,6.90
2022-08-27T08:11:18.681Z,6.60
2022-08-27T08:16:29.653Z,6.10
2022-08-27T08:21:35.694Z,7.20
2022-08-27T08:26:38.759Z,6.90
2022-08-27T08:31:42.100Z,6.00
2022-08-27T08:36:46.263Z,6.60
2022-08-27T08:42:00.149Z,7.00
2022-08-27T08:47:14.994Z,6.70
2022-08-27T08:52:34.349Z,6.20
2022-08-27T08:57:47.908Z,5.40
2022-08-27T09:02:54.960Z,6.70
2022-08-27T09:08:36.593Z,6.70
2022-08-27T09:13:48.551Z,6.50
2022-08-27T09:18:52.593Z,6.70
2022-08-27T09:24:02.100Z,6.50
2022-08-27T09:29:21.385Z,6.60
2022-08-27T09:34:35.591Z,6.60
2022-08-27T09:39:41.230Z,7.20
2022-08-27T09:44:53.608Z,6.50
2022-08-27T09:50:07.642Z,7.10
2022-08-27T09:55:12.105Z,6.50
2022-08-27T10:05:54.726Z,6.60
2022-08-27T10:11:05.175Z,6.20
2022-08-27T10:16:53.342Z,7.80
2022-08-27T10:22:13.775Z,7.20
2022-08-27T10:27:32.886Z,6.90
2022-08-27T10:32:41.692Z,6.80
2022-08-27T10:37:59.533Z,6.50
2022-08-27T10:43:24.362Z,6.90
2022-08-27T10:48:31.815Z,6.80
2022-08-27T10:53:56.515Z,6.30
2022-08-27T10:59:14.776Z,6.70
2022-08-27T11:04:26.748Z,6.80
2022-08-27T11:09:57.417Z,6.40
2022-08-27T11:15:12.291Z,7.00
2022-08-27T11:20:27.738Z,6.70
2022-08-27T11:26:02.002Z,5.90
2022-08-27T11:31:11.876Z,6.20
2022-08-27T11:36:39.257Z,6.10
2022-08-27T11:41:52.072Z,6.40
2022-08-27T11:46:58.336Z,5.70
2022-08-27T11:52:05.273Z,5.90
2022-08-27T11:57:15.699Z,6.30
2022-08-27T12:02:30.236Z,6.30
2022-08-27T12:13:02.847Z,5.60
2022-08-27T12:18:24.021Z,5.80
2022-08-27T12:23:51.402Z,5.90
2022-08-27T12:28:58.891Z,5.20
2022-08-27T12:34:02.323Z,5.50
2022-08-27T12:39:15.278Z,5.70
2022-08-27T12:44:31.671Z,5.20
2022-08-27T12:49:41.924Z,5.20
2022-08-27T12:54:57.583Z,6.00
2022-08-27T13:00:26.364Z,5.40
2022-08-27T13:05:43.269Z,5.40
2022-08-27T13:10:46.457Z,5.60
2022-08-27T13:15:56.763Z,6.00
2022-08-27T13:21:14.012Z,5.80
2022-08-27T13:26:23.847Z,6.00
2022-08-27T13:31:31.507Z,6.50
2022-08-27T13:36:49.948Z,6.90
2022-08-27T13:41:53.065Z,6.40
2022-08-27T13:47:07.435Z,6.90
2022-08-27T13:52:29.349Z,6.50
2022-08-27T13:57:43.728Z,7.60
2022-08-27T14:02:55.488Z,8.10
2022-08-27T14:08:21.774Z,7.90
2022-08-27T14:13:25.831Z,7.20
2022-08-27T14:24:05.646Z,7.30
2022-08-27T14:29:12.259Z,7.50
2022-08-27T14:34:16.024Z,7.10
2022-08-27T14:39:19.173Z,7.30
2022-08-27T14:44:25.226Z,7.30
2022-08-27T14:49:32.616Z,7.30
2022-08-27T14:54:36.182Z,6.80
2022-08-27T14:59:39.454Z,6.50
2022-08-27T15:04:46.472Z,7.30
2022-08-27T15:09:51.128Z,7.30
2022-08-27T15:14:54.527Z,7.00
2022-08-27T15:19:57.551Z,6.90
2022-08-27T15:25:03.031Z,7.00
2022-08-27T15:30:10.188Z,7.00
2022-08-27T15:35:17.834Z,7.10
2022-08-27T15:40:24.655Z,7.50
2022-08-27T15:45:29.177Z,6.40
2022-08-27T15:50:32.898Z,7.10
2022-08-27T15:55:39.011Z,6.70
2022-08-27T16:00:43.185Z,7.40
2022-08-27T16:05:47.363Z,6.40
2022-08-27T16:10:50.691Z,7.20
2022-08-27T16:15:55.731Z,7.20
2022-08-27T16:21:01.611Z,7.60
2022-08-27T16:26:04.744Z,6.90
2022-08-27T16:31:11.383Z,7.10
2022-08-27T16:36:15.516Z,7.00
2022-08-27T16:41:18.508Z,7.30
2022-08-27T16:46:21.483Z,7.30
2022-08-27T16:51:32.633Z,7.00
2022-08-27T16:56:38.035Z,7.70
2022-08-27T17:06:46.196Z,7.90
2022-08-27T17:11:54.965Z,7.60
2022-08-27T17:16:58.198Z,7.40
2022-08-27T17:22:03.702Z,7.40
2022-08-27T17:27:06.749Z,7.80
2022-08-27T17:32:10.297Z,7.80
2022-08-27T17:37:13.209Z,8.40
2022-08-27T17:42:16.575Z,8.60
2022-08-27T17:47:24.954Z,7.70
2022-08-27T17:52:29.414Z,8.40
2022-08-27T17:57:40.340Z,8.90
2022-08-27T18:02:47.767Z,8.40
2022-08-27T18:07:52.347Z,8.50
2022-08-27T18:12:56.106Z,8.60
2022-08-27T18:18:01.121Z,8.10
2022-08-27T18:23:04.578Z,8.30
2022-08-27T18:28:11.320Z,7.80
2022-08-27T18:33:15.698Z,7.20
2022-08-27T18:38:18.634Z,8.50
2022-08-27T18:43:25.978Z,8.30
2022-08-27T18:48:29.018Z,7.80
2022-08-27T18:53:37.144Z,7.80
2022-08-27T18:58:41.180Z,6.90
2022-08-27T19:03:48.341Z,6.90
2022-08-27T19:08:51.842Z,8.10
2022-08-27T19:13:54.853Z,12.40
2022-08-27T19:18:57.979Z,10.10
2022-08-27T19:24:01.586Z,12.10
2022-08-27T19:29:05.623Z,10.80
2022-08-27T19:34:09.155Z,11.00
2022-08-27T19:39:13.528Z,12.10
2022-08-27T19:44:16.374Z,11.80
2022-08-27T19:49:19.353Z,15.40
2022-08-27T19:54:22.374Z,13.80
2022-08-27T19:59:25.548Z,13.80
2022-08-27T20:04:34.892Z,12.80
2022-08-27T20:09:42.467Z,15.50
2022-08-27T20:14:45.440Z,16.90
2022-08-27T20:19:55.002Z,15.50
2022-08-27T20:24:59.713Z,12.80
2022-08-27T20:30:05.296Z,16.60
2022-08-27T20:35:09.725Z,18.40
2022-08-27T20:40:18.861Z,25.70
2022-08-27T20:45:23.235Z,16.50
2022-08-27T20:50:27.155Z,9.80
2022-08-27T20:55:31.894Z,8.40
2022-08-27T21:00:37.769Z,7.60
2022-08-27T21:05:43.790Z,8.10
2022-08-27T21:10:52.937Z,8.20
2022-08-27T21:15:56.655Z,9.70
2022-08-27T21:21:02.321Z,8.70
2022-08-27T21:26:11.343Z,8.70
2022-08-27T21:31:15.805Z,8.20
2022-08-27T21:36:19.333Z,8.00
2022-08-27T21:41:23.092Z,8.30
2022-08-27T21:46:25.883Z,9.00
2022-08-27T21:51:29.039Z,10.10
2022-08-27T21:56:33.528Z,10.70
2022-08-27T22:01:37.343Z,9.50
2022-08-27T22:06:40.647Z,8.30
2022-08-27T22:11:44.133Z,8.50
2022-08-27T22:16:50.328Z,9.40
2022-08-27T22:21:53.171Z,11.70
2022-08-27T22:26:57.178Z,10.50
2022-08-27T22:32:00.815Z,9.10
2022-08-27T22:37:04.513Z,9.60
2022-08-27T22:42:07.623Z,9.30
2022-08-27T22:47:11.344Z,8.40
2022-08-27T22:52:14.438Z,8.80
2022-08-27T22:57:17.359Z,8.10
2022-08-27T23:02:20.213Z,7.80
2022-08-27T23:07:24.670Z,7.60
2022-08-27T23:12:27.615Z,7.30
2022-08-27T23:17:30.521Z,7.90
2022-08-27T23:22:33.765Z,7.30
2022-08-27T23:27:36.684Z,7.00
2022-08-27T23:32:39.639Z,7.30
2022-08-27T23:37:50.664Z,8.00
2022-08-27T23:42:54.360Z,6.90
2022-08-27T23:47:57.456Z,8.10
2022-08-27T23:53:00.970Z,7.70
2022-08-27T23:58:04.639Z,7.80
